createdAt,value
2018-11-28T00:01:10.424Z,13.00
2018-11-28T00:03:42.947Z,13.00
2018-11-28T00:06:15.290Z,13.00
2018-11-28T00:08:47.735Z,12.90
2018-11-28T00:11:20.252Z,12.90
2018-11-28T00:13:52.415Z,12.80
2018-11-28T00:16:24.771Z,12.80
2018-11-28T00:18:57.035Z,12.70
2018-11-28T00:21:29.430Z,12.70
2018-11-28T00:24:01.583Z,12.70
2018-11-28T00:26:34.151Z,12.60
2018-11-28T00:29:07.017Z,12.60
2018-11-28T00:31:39.613Z,12.50
2018-11-28T00:34:11.739Z,12.50
2018-11-28T00:36:44.733Z,12.50
2018-11-28T00:39:17.193Z,12.40
2018-11-28T00:41:49.408Z,12.40
2018-11-28T00:44:22.388Z,12.40
2018-11-28T00:46:55.062Z,12.40
2018-11-28T00:49:27.446Z,12.40
2018-11-28T00:52:00.082Z,12.30
2018-11-28T00:54:32.619Z,12.30
2018-11-28T00:57:04.819Z,12.40
2018-11-28T00:59:37.313Z,12.30
2018-11-28T01:02:09.719Z,12.30
2018-11-28T01:04:42.256Z,12.20
2018-11-28T01:07:14.656Z,12.20
2018-11-28T01:09:47.036Z,12.10
2018-11-28T01:12:19.251Z,12.10
2018-11-28T01:14:51.398Z,12.00
2018-11-28T01:17:23.778Z,12.00
2018-11-28T01:19:56.416Z,12.00
2018-11-28T01:22:30.482Z,11.90
2018-11-28T01:25:02.941Z,11.80
2018-11-28T01:27:35.295Z,11.80
2018-11-28T01:30:09.694Z,11.80
2018-11-28T01:32:41.778Z,11.70
2018-11-28T01:35:14.786Z,11.70
2018-11-28T01:37:47.293Z,11.70
2018-11-28T01:40:21.397Z,11.60
2018-11-28T01:42:54.161Z,11.60
2018-11-28T01:45:26.537Z,11.60
2018-11-28T01:47:58.783Z,11.60
2018-11-28T01:50:31.381Z,11.60
2018-11-28T01:53:04.767Z,11.90
2018-11-28T01:55:37.343Z,11.50
2018-11-28T01:58:10.167Z,11.60
2018-11-28T02:00:43.116Z,11.60
2018-11-28T02:03:17.755Z,11.60
2018-11-28T02:05:50.200Z,11.60
2018-11-28T02:08:22.782Z,11.60
2018-11-28T02:10:55.375Z,11.60
2018-11-28T02:13:27.665Z,11.60
2018-11-28T02:15:59.931Z,11.60
2018-11-28T02:18:32.160Z,11.60
2018-11-28T02:21:04.522Z,11.60
2018-11-28T02:23:37.753Z,11.50
2018-11-28T02:26:10.084Z,11.50
2018-11-28T02:28:43.410Z,11.50
2018-11-28T02:31:15.830Z,11.50
2018-11-28T02:33:48.208Z,11.50
2018-11-28T02:36:20.586Z,11.50
2018-11-28T02:38:52.856Z,11.50
2018-11-28T02:41:25.513Z,11.50
2018-11-28T02:44:02.560Z,11.80
2018-11-28T02:46:35.823Z,11.50
2018-11-28T02:49:08.073Z,11.60
2018-11-28T02:51:40.659Z,11.50
2018-11-28T02:54:14.255Z,11.50
2018-11-28T02:56:47.766Z,11.50
2018-11-28T02:59:19.932Z,11.50
2018-11-28T03:01:52.149Z,11.50
2018-11-28T03:04:24.707Z,11.50
2018-11-28T03:06:57.236Z,11.50
2018-11-28T03:09:29.619Z,11.50
2018-11-28T03:12:02.332Z,11.50
2018-11-28T03:14:34.944Z,11.50
2018-11-28T03:17:07.721Z,11.40
2018-11-28T03:19:40.056Z,11.40
2018-11-28T03:22:12.430Z,11.40
2018-11-28T03:24:44.820Z,11.30
2018-11-28T03:27:16.904Z,11.30
2018-11-28T03:29:48.651Z,11.20
2018-11-28T03:32:20.446Z,11.20
2018-11-28T03:34:52.520Z,11.20
2018-11-28T03:37:25.217Z,11.10
2018-11-28T03:39:57.765Z,11.10
2018-11-28T03:42:30.375Z,11.10
2018-11-28T03:45:02.799Z,11.10
2018-11-28T03:47:34.938Z,11.10
2018-11-28T03:50:07.183Z,11.10
2018-11-28T03:52:39.462Z,11.10
2018-11-28T03:55:13.035Z,11.30
2018-11-28T03:57:46.224Z,11.10
2018-11-28T04:00:21.135Z,11.10
2018-11-28T04:02:54.473Z,11.10
2018-11-28T04:05:27.297Z,11.10
2018-11-28T04:07:59.763Z,11.10
2018-11-28T04:10:33.025Z,11.10
2018-11-28T04:13:05.044Z,11.10
2018-11-28T04:15:36.912Z,11.30
2018-11-28T04:18:09.299Z,11.10
2018-11-28T04:20:41.273Z,11.10
2018-11-28T04:23:13.516Z,11.10
2018-11-28T04:25:45.822Z,11.00
2018-11-28T04:28:18.188Z,11.00
2018-11-28T04:30:50.806Z,11.00
2018-11-28T04:33:22.722Z,11.00
2018-11-28T04:35:55.095Z,11.00
2018-11-28T04:38:27.222Z,10.90
2018-11-28T04:40:59.698Z,11.30
2018-11-28T04:43:32.028Z,10.90
2018-11-28T04:46:04.261Z,11.00
2018-11-28T04:48:37.496Z,10.80
2018-11-28T04:51:09.745Z,10.80
2018-11-28T04:53:42.275Z,10.70
2018-11-28T04:56:14.766Z,10.70
2018-11-28T04:58:47.062Z,10.70
2018-11-28T05:01:19.515Z,10.60
2018-11-28T05:03:51.865Z,10.90
2018-11-28T05:07:28.780Z,10.70
2018-11-28T05:10:01.459Z,10.90
2018-11-28T05:12:33.342Z,10.60
2018-11-28T05:15:05.279Z,10.50
2018-11-28T05:17:37.119Z,10.50
2018-11-28T05:20:11.787Z,10.20
2018-11-28T05:22:44.409Z,10.40
2018-11-28T05:25:20.339Z,10.30
2018-11-28T05:27:53.592Z,10.30
2018-11-28T05:30:26.361Z,10.50
2018-11-28T05:32:58.189Z,10.20
2018-11-28T05:35:37.100Z,10.10
2018-11-28T05:38:15.257Z,10.10
2018-11-28T05:40:47.719Z,10.10
2018-11-28T05:43:20.664Z,10.00
2018-11-28T05:45:53.471Z,10.00
2018-11-28T05:48:26.365Z,10.00
2018-11-28T05:50:58.176Z,10.00
2018-11-28T05:53:30.651Z,10.00
2018-11-28T05:56:03.547Z,10.00
2018-11-28T05:58:35.344Z,10.00
2018-11-28T06:01:07.752Z,9.80
2018-11-28T06:03:40.090Z,9.90
2018-11-28T06:06:12.401Z,10.10
2018-11-28T06:08:45.315Z,10.00
2018-11-28T06:11:17.578Z,9.80
2018-11-28T06:13:49.853Z,9.90
2018-11-28T06:16:23.408Z,9.80
2018-11-28T06:18:55.484Z,10.10
2018-11-28T06:21:28.205Z,9.80
2018-11-28T06:24:00.875Z,9.80
2018-11-28T06:26:33.374Z,9.70
2018-11-28T06:29:05.644Z,9.60
2018-11-28T06:31:38.119Z,9.70
2018-11-28T06:34:10.180Z,9.50
2018-11-28T06:36:42.459Z,9.60
2018-11-28T06:39:14.490Z,9.50
2018-11-28T06:41:46.863Z,9.50
2018-11-28T06:44:19.078Z,9.50
2018-11-28T06:46:51.335Z,9.50
2018-11-28T06:49:23.780Z,9.50
2018-11-28T06:51:56.374Z,9.50
2018-11-28T06:54:28.916Z,9.40
2018-11-28T06:57:01.294Z,9.10
2018-11-28T06:59:33.640Z,9.30
2018-11-28T07:02:06.521Z,9.30
2018-11-28T07:04:39.019Z,9.20
2018-11-28T07:07:11.588Z,9.20
2018-11-28T07:09:44.128Z,9.30
2018-11-28T07:12:16.710Z,9.10
2018-11-28T07:14:49.104Z,9.10
2018-11-28T07:17:21.691Z,9.10
2018-11-28T07:19:54.074Z,9.10
2018-11-28T07:22:26.239Z,8.90
2018-11-28T07:24:58.830Z,8.80
2018-11-28T07:27:31.164Z,8.80
2018-11-28T07:30:03.755Z,8.70
2018-11-28T07:32:36.103Z,8.60
2018-11-28T07:35:09.245Z,8.60
2018-11-28T07:37:41.568Z,8.70
2018-11-28T07:40:16.600Z,8.60
2018-11-28T07:42:57.379Z,8.40
2018-11-28T07:45:29.806Z,8.50
2018-11-28T07:48:02.055Z,8.30
2018-11-28T07:50:35.008Z,8.70
2018-11-28T07:53:07.534Z,8.70
2018-11-28T07:55:39.759Z,8.80
2018-11-28T07:58:12.066Z,8.60
2018-11-28T08:00:44.717Z,8.70
2018-11-28T08:03:17.007Z,8.60
2018-11-28T08:05:49.393Z,8.50
2018-11-28T08:08:21.986Z,8.60
2018-11-28T08:10:54.542Z,8.70
2018-11-28T08:13:26.993Z,8.70
2018-11-28T08:15:59.438Z,8.80
2018-11-28T08:18:31.970Z,8.60
2018-11-28T08:21:04.339Z,8.60
2018-11-28T08:23:36.562Z,8.70
2018-11-28T08:26:08.845Z,8.60
2018-11-28T08:28:41.120Z,8.50
2018-11-28T08:31:13.341Z,8.60
2018-11-28T08:33:45.470Z,8.40
2018-11-28T08:36:17.870Z,8.30
2018-11-28T08:38:50.269Z,8.30
2018-11-28T08:41:23.351Z,8.30
2018-11-28T08:43:55.679Z,8.30
2018-11-28T08:46:27.871Z,8.30
2018-11-28T08:49:00.106Z,8.00
2018-11-28T08:51:32.508Z,8.30
2018-11-28T08:54:04.899Z,7.90
2018-11-28T08:56:37.276Z,8.00
2018-11-28T08:59:09.539Z,8.00
2018-11-28T09:01:41.568Z,7.90
2018-11-28T09:04:13.866Z,7.60
2018-11-28T09:06:46.076Z,7.60
2018-11-28T09:09:18.551Z,7.60
2018-11-28T09:11:50.739Z,7.50
2018-11-28T09:14:23.421Z,7.60
2018-11-28T09:16:56.033Z,7.20
2018-11-28T09:19:28.063Z,7.60
2018-11-28T09:22:00.693Z,7.20
2018-11-28T09:24:32.997Z,7.30
2018-11-28T09:27:05.261Z,7.60
2018-11-28T09:29:37.478Z,7.00
2018-11-28T09:32:10.120Z,7.10
2018-11-28T09:34:42.489Z,7.20
2018-11-28T09:37:14.687Z,7.60
2018-11-28T09:39:47.241Z,7.30
2018-11-28T09:42:19.720Z,7.40
2018-11-28T09:44:51.789Z,7.40
2018-11-28T09:47:24.155Z,7.60
2018-11-28T09:49:56.405Z,7.50
2018-11-28T09:52:28.955Z,7.40
2018-11-28T09:55:01.283Z,7.40
2018-11-28T09:57:33.398Z,7.40
2018-11-28T10:00:06.262Z,7.90
2018-11-28T10:02:38.688Z,7.70
2018-11-28T10:05:15.662Z,7.70
2018-11-28T10:07:48.010Z,7.70
2018-11-28T10:10:20.411Z,7.70
2018-11-28T10:12:52.933Z,8.10
2018-11-28T10:15:25.789Z,8.00
2018-11-28T10:17:58.120Z,7.80
2018-11-28T10:20:30.497Z,7.80
2018-11-28T10:23:02.797Z,7.80
2018-11-28T10:25:35.287Z,8.00
2018-11-28T10:28:09.591Z,7.70
2018-11-28T10:30:42.137Z,7.80
2018-11-28T10:33:15.199Z,8.00
2018-11-28T10:35:47.517Z,8.00
2018-11-28T10:38:20.513Z,8.00
2018-11-28T10:40:52.860Z,7.90
2018-11-28T10:43:25.278Z,7.70
2018-11-28T10:45:57.760Z,7.80
2018-11-28T10:48:29.924Z,7.70
2018-11-28T10:51:02.237Z,8.00
2018-11-28T10:53:34.623Z,8.00
2018-11-28T10:56:07.517Z,8.00
2018-11-28T10:58:39.825Z,8.30
2018-11-28T11:01:16.379Z,8.20
2018-11-28T11:03:53.262Z,8.20
2018-11-28T11:06:30.041Z,8.30
2018-11-28T11:09:07.561Z,8.20
2018-11-28T11:11:44.508Z,8.20
2018-11-28T11:14:53.046Z,8.30
2018-11-28T11:17:25.421Z,8.40
2018-11-28T11:19:58.171Z,8.30
2018-11-28T11:22:30.222Z,8.30
2018-11-28T11:25:02.682Z,8.40
2018-11-28T11:27:34.730Z,8.40
2018-11-28T11:30:08.532Z,8.40
2018-11-28T11:32:40.688Z,8.40
2018-11-28T11:35:13.411Z,8.30
2018-11-28T11:37:45.659Z,8.30
2018-11-28T11:40:18.057Z,8.40
2018-11-28T11:42:50.485Z,8.40
2018-11-28T11:45:22.749Z,8.40
2018-11-28T11:47:55.167Z,8.60
2018-11-28T11:50:27.552Z,8.40
2018-11-28T11:53:00.098Z,8.40
2018-11-28T11:55:32.219Z,8.40
2018-11-28T11:58:04.604Z,8.70
2018-11-28T12:00:39.470Z,8.30
2018-11-28T12:03:12.651Z,8.40
2018-11-28T12:05:47.803Z,8.30
2018-11-28T12:08:20.425Z,8.30
2018-11-28T12:10:52.813Z,8.30
2018-11-28T12:13:25.165Z,8.30
2018-11-28T12:15:57.488Z,8.30
2018-11-28T12:18:30.113Z,8.40
2018-11-28T12:21:05.248Z,8.40
2018-11-28T12:23:37.875Z,8.20
2018-11-28T12:26:10.191Z,8.40
2018-11-28T12:28:42.953Z,8.20
2018-11-28T12:31:15.369Z,8.40
2018-11-28T12:33:48.258Z,8.20
2018-11-28T12:36:21.008Z,8.10
2018-11-28T12:38:53.562Z,8.40
2018-11-28T12:41:25.921Z,8.00
2018-11-28T12:43:58.536Z,8.00
2018-11-28T12:46:31.279Z,7.90
2018-11-28T12:49:03.416Z,7.80
2018-11-28T12:51:36.024Z,7.90
2018-11-28T12:54:08.126Z,8.00
2018-11-28T12:56:40.500Z,8.10
2018-11-28T12:59:12.873Z,8.00
2018-11-28T13:01:45.247Z,7.80
2018-11-28T13:04:17.565Z,8.00
2018-11-28T13:06:50.128Z,8.00
2018-11-28T13:09:22.507Z,7.80
2018-11-28T13:11:59.882Z,8.10
2018-11-28T13:14:27.711Z,8.00
2018-11-28T13:17:00.014Z,8.00
2018-11-28T13:19:32.176Z,7.90
2018-11-28T13:22:04.584Z,8.00
2018-11-28T13:24:37.339Z,8.10
2018-11-28T13:27:10.119Z,8.10
2018-11-28T13:29:42.498Z,8.20
2018-11-28T13:32:14.896Z,8.30
2018-11-28T13:34:47.205Z,8.30
2018-11-28T13:37:20.239Z,8.50
2018-11-28T13:39:52.669Z,8.40
2018-11-28T13:42:24.873Z,8.30
2018-11-28T13:44:56.980Z,8.40
2018-11-28T13:47:28.967Z,8.40
2018-11-28T13:50:01.144Z,8.30
2018-11-28T13:52:33.685Z,8.40
2018-11-28T13:55:37.753Z,8.30
2018-11-28T13:57:39.811Z,8.70
2018-11-28T14:00:12.573Z,8.40
2018-11-28T14:02:45.007Z,8.60
2018-11-28T14:05:17.395Z,8.70
2018-11-28T14:07:49.841Z,8.80
2018-11-28T14:10:21.932Z,8.60
2018-11-28T14:12:54.809Z,8.60
2018-11-28T14:15:27.592Z,8.70
2018-11-28T14:18:00.976Z,8.70
2018-11-28T14:20:33.307Z,8.70
2018-11-28T14:23:06.348Z,8.80
2018-11-28T14:25:38.476Z,8.90
2018-11-28T14:28:11.676Z,8.70
2018-11-28T14:30:44.019Z,9.00
2018-11-28T14:33:16.151Z,9.10
2018-11-28T14:35:48.339Z,9.10
2018-11-28T14:38:21.450Z,9.10
2018-11-28T14:40:53.674Z,9.00
2018-11-28T14:43:26.025Z,9.10
2018-11-28T14:45:58.400Z,9.10
2018-11-28T14:48:30.542Z,9.20
2018-11-28T14:51:02.836Z,9.10
2018-11-28T14:53:35.200Z,9.10
2018-11-28T14:56:07.719Z,9.00
2018-11-28T14:58:40.286Z,9.10
2018-11-28T15:01:12.680Z,9.10
2018-11-28T15:03:45.097Z,9.10
2018-11-28T15:06:24.775Z,9.10
2018-11-28T15:09:01.723Z,9.10
2018-11-28T15:11:33.866Z,9.10
2018-11-28T15:14:06.506Z,9.10
2018-11-28T15:16:38.579Z,9.10
2018-11-28T15:19:11.004Z,8.90
2018-11-28T15:21:43.552Z,9.10
2018-11-28T15:24:15.649Z,9.00
2018-11-28T15:26:48.071Z,9.00
2018-11-28T15:29:20.419Z,9.00
2018-11-28T15:31:53.306Z,9.10
2018-11-28T15:34:25.837Z,9.00
2018-11-28T15:36:58.150Z,9.00
2018-11-28T15:39:30.783Z,9.10
2018-11-28T15:42:03.076Z,9.00
2018-11-28T15:44:35.414Z,9.00
2018-11-28T15:47:07.931Z,9.00
2018-11-28T15:49:40.203Z,8.90
2018-11-28T15:52:12.580Z,9.00
2018-11-28T15:54:45.030Z,9.00
2018-11-28T15:57:17.602Z,9.00
2018-11-28T15:59:49.798Z,9.00
2018-11-28T16:02:22.186Z,9.00
2018-11-28T16:04:54.728Z,9.00
2018-11-28T16:07:27.191Z,9.00
2018-11-28T16:10:04.017Z,8.90
2018-11-28T16:12:36.200Z,8.90
2018-11-28T16:15:09.418Z,9.00
2018-11-28T16:17:42.300Z,9.00
2018-11-28T16:20:14.669Z,8.90
2018-11-28T16:22:46.962Z,9.00
2018-11-28T16:25:19.639Z,9.00
2018-11-28T16:27:51.852Z,9.10
2018-11-28T16:30:24.270Z,8.90
2018-11-28T16:32:56.679Z,9.10
2018-11-28T16:35:29.035Z,9.10
2018-11-28T16:38:01.561Z,9.00
2018-11-28T16:40:33.863Z,9.00
2018-11-28T16:43:06.250Z,8.90
2018-11-28T16:45:38.545Z,9.00
2018-11-28T16:48:10.810Z,9.00
2018-11-28T16:50:43.284Z,9.00
2018-11-28T16:53:15.700Z,9.00
2018-11-28T16:55:47.816Z,9.00
2018-11-28T16:58:20.397Z,9.00
2018-11-28T17:00:52.666Z,9.00
2018-11-28T17:03:25.239Z,9.20
2018-11-28T17:05:57.641Z,9.10
2018-11-28T17:08:29.758Z,9.00
2018-11-28T17:11:02.371Z,9.00
2018-11-28T17:13:34.889Z,9.00
2018-11-28T17:16:07.728Z,9.20
2018-11-28T17:18:40.236Z,9.00
2018-11-28T17:21:12.608Z,9.00
2018-11-28T17:23:44.839Z,9.00
2018-11-28T17:26:17.016Z,9.10
2018-11-28T17:28:49.616Z,9.00
2018-11-28T17:31:22.126Z,9.10
2018-11-28T17:33:54.509Z,9.10
2018-11-28T17:36:27.143Z,9.00
2018-11-28T17:38:59.469Z,9.10
2018-11-28T17:41:32.012Z,9.20
2018-11-28T17:44:04.474Z,9.00
2018-11-28T17:46:36.914Z,9.20
2018-11-28T17:49:09.412Z,9.20
2018-11-28T17:51:42.056Z,9.20
2018-11-28T17:54:15.232Z,9.10
2018-11-28T17:56:47.449Z,9.30
2018-11-28T17:59:19.994Z,9.00
2018-11-28T18:01:52.036Z,9.10
2018-11-28T18:04:29.917Z,9.00
2018-11-28T18:06:57.266Z,9.10
2018-11-28T18:09:29.533Z,9.10
2018-11-28T18:12:02.034Z,9.10
2018-11-28T18:14:34.311Z,9.10
2018-11-28T18:17:06.724Z,9.10
2018-11-28T18:19:39.526Z,9.10
2018-11-28T18:22:12.036Z,9.10
2018-11-28T18:24:44.111Z,9.00
2018-11-28T18:27:16.738Z,9.20
2018-11-28T18:29:49.018Z,9.20
2018-11-28T18:32:21.267Z,9.20
2018-11-28T18:34:53.973Z,9.40
2018-11-28T18:37:26.351Z,9.20
2018-11-28T18:39:58.917Z,9.10
2018-11-28T18:42:31.595Z,9.20
2018-11-28T18:45:04.266Z,9.40
2018-11-28T18:47:36.490Z,9.10
2018-11-28T18:50:09.817Z,9.10
2018-11-28T18:52:42.119Z,9.10
2018-11-28T18:55:17.944Z,9.20
2018-11-28T18:57:53.419Z,9.20
2018-11-28T19:00:26.309Z,9.10
2018-11-28T19:02:58.839Z,9.20
2018-11-28T19:05:30.986Z,9.20
2018-11-28T19:08:03.488Z,9.00
2018-11-28T19:10:35.659Z,9.10
2018-11-28T19:13:08.376Z,9.10
2018-11-28T19:15:40.625Z,9.20
2018-11-28T19:18:13.000Z,9.30
2018-11-28T19:20:45.403Z,9.30
2018-11-28T19:23:17.587Z,9.30
2018-11-28T19:25:50.328Z,9.50
2018-11-28T19:28:22.473Z,9.30
2018-11-28T19:30:54.824Z,9.40
2018-11-28T19:33:27.421Z,9.40
2018-11-28T19:35:59.763Z,9.30
2018-11-28T19:38:32.279Z,9.40
2018-11-28T19:41:08.232Z,9.50
2018-11-28T19:43:40.686Z,9.40
2018-11-28T19:46:13.589Z,9.50
2018-11-28T19:48:45.675Z,9.40
2018-11-28T19:51:18.194Z,9.40
2018-11-28T19:53:50.791Z,9.50
2018-11-28T19:56:23.106Z,9.50
2018-11-28T19:58:55.624Z,9.50
2018-11-28T20:01:28.130Z,9.50
2018-11-28T20:04:00.663Z,9.60
2018-11-28T20:06:33.219Z,9.70
2018-11-28T20:09:06.960Z,9.70
2018-11-28T20:11:39.235Z,9.80
2018-11-28T20:14:11.559Z,10.00
2018-11-28T20:16:43.751Z,9.70
2018-11-28T20:19:17.662Z,9.70
2018-11-28T20:21:49.719Z,9.70
2018-11-28T20:24:22.245Z,9.50
2018-11-28T20:26:54.617Z,9.60
2018-11-28T20:29:26.926Z,9.70
2018-11-28T20:31:59.101Z,9.50
2018-11-28T20:34:32.931Z,9.40
2018-11-28T20:37:05.304Z,9.60
2018-11-28T20:39:37.853Z,9.50
2018-11-28T20:42:09.874Z,9.60
2018-11-28T20:44:42.182Z,9.50
2018-11-28T20:47:14.373Z,9.40
2018-11-28T20:49:46.743Z,9.40
2018-11-28T20:52:19.061Z,9.30
2018-11-28T20:55:07.139Z,9.50
2018-11-28T20:57:39.312Z,9.30
2018-11-28T21:00:19.744Z,9.20
2018-11-28T21:02:52.293Z,9.10
2018-11-28T21:05:24.678Z,9.10
2018-11-28T21:07:57.174Z,9.10
2018-11-28T21:10:34.010Z,9.20
2018-11-28T21:13:06.729Z,9.00
2018-11-28T21:15:39.201Z,9.10
2018-11-28T21:18:12.441Z,9.00
2018-11-28T21:20:45.733Z,9.10
2018-11-28T21:23:18.891Z,9.10
2018-11-28T21:25:51.409Z,9.10
2018-11-28T21:28:23.517Z,9.10
2018-11-28T21:30:55.650Z,9.30
2018-11-28T21:33:27.834Z,9.00
2018-11-28T21:36:00.618Z,9.30
2018-11-28T21:38:32.796Z,9.20
2018-11-28T21:41:05.017Z,9.50
2018-11-28T21:43:37.315Z,9.20
2018-11-28T21:46:10.101Z,9.40
2018-11-28T21:48:42.663Z,9.20
2018-11-28T21:51:15.034Z,9.10
2018-11-28T21:53:47.552Z,9.00
2018-11-28T21:56:19.980Z,9.10
2018-11-28T21:58:52.530Z,9.10
2018-11-28T22:01:24.918Z,9.10
2018-11-28T22:03:57.262Z,9.10
2018-11-28T22:06:29.612Z,9.20
2018-11-28T22:09:02.998Z,9.10
2018-11-28T22:11:35.189Z,9.10
2018-11-28T22:14:07.866Z,9.00
2018-11-28T22:16:39.939Z,9.10
2018-11-28T22:19:12.455Z,9.10
2018-11-28T22:21:44.912Z,9.10
2018-11-28T22:24:17.237Z,9.10
2018-11-28T22:26:49.640Z,9.30
2018-11-28T22:29:21.984Z,9.10
2018-11-28T22:31:54.408Z,9.10
2018-11-28T22:34:26.785Z,9.10
2018-11-28T22:36:59.326Z,9.10
2018-11-28T22:39:31.848Z,9.10
2018-11-28T22:42:04.261Z,9.50
2018-11-28T22:44:36.587Z,9.00
2018-11-28T22:47:08.974Z,9.40
2018-11-28T22:49:41.027Z,9.40
2018-11-28T22:52:13.315Z,9.40
2018-11-28T22:54:45.570Z,9.40
2018-11-28T22:57:17.754Z,9.40
2018-11-28T22:59:50.136Z,9.50
2018-11-28T23:02:40.798Z,9.40
2018-11-28T23:05:13.070Z,9.50
2018-11-28T23:07:45.308Z,9.40
2018-11-28T23:10:17.487Z,9.40
2018-11-28T23:12:50.017Z,9.40
2018-11-28T23:15:22.185Z,9.50
2018-11-28T23:17:55.489Z,9.50
2018-11-28T23:20:27.139Z,9.50
2018-11-28T23:22:59.729Z,9.50
2018-11-28T23:25:32.261Z,9.60
2018-11-28T23:28:04.695Z,9.50
2018-11-28T23:30:37.038Z,9.60
2018-11-28T23:33:16.099Z,9.70
2018-11-28T23:35:45.458Z,9.60
2018-11-28T23:38:18.269Z,9.60
2018-11-28T23:40:50.840Z,9.60
2018-11-28T23:43:23.204Z,9.50
2018-11-28T23:45:56.605Z,9.70
2018-11-28T23:48:29.172Z,9.70
2018-11-28T23:51:01.858Z,9.80
2018-11-28T23:53:34.236Z,9.70
2018-11-28T23:56:06.977Z,9.50
2018-11-28T23:58:39.347Z,9.60
